Trans Exeter — 9HA2572 — position and weather

sailwx.info

Track history (hours):
 
Tides and Currents Weather Stations Pressure Air Temp Water Temp Dewpoint Dewpoint Depression Visibility Wind Speed Wind Dir Waves Ship Positions

Trans Exeter

Last reported at 2017-Feb-18 18:05 UTC. Time now 2017-Feb-21 19:04 UTC.
Position N 37°44' E 024°19'.

Length 118 m; draft 7.2 m.

Type: Ship (hazmat cat C). MMSI: 248908000.

Date/timePositionNaut miles runAvg speedWind from/ knotsBaromVisibWave heightAir tempDewpointWater temp
2017-Feb-18 18:05N 37°44' E 024°19'1013.9
2017-Feb-18 17:20N 37°36' E 024°11'46613.0
2017-Feb-17 05:34N 36°39' E 014°31'1414.3
2017-Feb-17 04:33N 36°44' E 014°15'1413.8
2017-Feb-17 03:33N 36°50' E 013°60'1413.7
2017-Feb-17 02:33N 36°58' E 013°45'26114.1
2017-Feb-16 08:04N 38°40' E 008°41'27510.8
2017-Feb-15 06:33N 40°29' E 003°14'1413.6
2017-Feb-15 05:33N 40°34' E 002°57'1313.2
2017-Feb-15 04:34N 40°39' E 002°41'1312.5
2017-Feb-15 03:33N 40°43' E 002°26'1312.7
2017-Feb-15 02:33N 40°47' E 002°10'1312.9
2017-Feb-15 01:30N 40°52' E 001°53'1212.9
2017-Feb-15 00:33N 40°56' E 001°38'27 0.8
2017-Feb-13 15:26N 40°42' E 001°06'2412.8
2017-Feb-13 13:33N 40°19' E 000°60'1312.7
2017-Feb-13 12:33N 40°06' E 000°57'14312.9
2017-Feb-13 01:32N 37°54' W 000°13'1313.1
2017-Feb-13 00:33N 37°44' W 000°22'1212.6
2017-Feb-12 23:34N 37°33' W 000°31'1312.7
2017-Feb-12 22:33N 37°25' W 000°43'22513.0
2017-Feb-12 05:11N 36°01' W 005°04'914.8
2017-Feb-12 04:33N 35°59' W 005°15'1515.0
2017-Feb-12 03:33N 35°56' W 005°33'25710.6
2017-Feb-11 03:22N 38°15' W 010°05'1112.7
2017-Feb-11 02:32N 38°26' W 010°08'1312.7
2017-Feb-11 01:32N 38°38' W 010°11'1312.9
2017-Feb-11 00:31N 38°51' W 010°12'  
Track history (hours):
 
Tides and Currents Weather Stations Pressure Air Temp Water Temp Dewpoint Dewpoint Depression Visibility Wind Speed Wind Dir Waves Ship Positions

Trans Exeter

Last reported at 2017-Feb-18 18:05 UTC. Time now 2017-Feb-21 19:04 UTC.
Position N 37°44' E 024°19'.

Length 118 m; draft 7.2 m.

Type: Ship (hazmat cat C). MMSI: 248908000.

Date/timePositionNaut miles runAvg speedWind from/ knotsBaromVisibWave heightAir tempDewpointWater temp
2017-Feb-18 18:05N 37°44' E 024°19'1013.9
2017-Feb-18 17:20N 37°36' E 024°11'46613.0
2017-Feb-17 05:34N 36°39' E 014°31'1414.3
2017-Feb-17 04:33N 36°44' E 014°15'1413.8
2017-Feb-17 03:33N 36°50' E 013°60'1413.7
2017-Feb-17 02:33N 36°58' E 013°45'26114.1
2017-Feb-16 08:04N 38°40' E 008°41'27510.8
2017-Feb-15 06:33N 40°29' E 003°14'1413.6
2017-Feb-15 05:33N 40°34' E 002°57'1313.2
2017-Feb-15 04:34N 40°39' E 002°41'1312.5
2017-Feb-15 03:33N 40°43' E 002°26'1312.7
2017-Feb-15 02:33N 40°47' E 002°10'1312.9
2017-Feb-15 01:30N 40°52' E 001°53'1212.9
2017-Feb-15 00:33N 40°56' E 001°38'27 0.8
2017-Feb-13 15:26N 40°42' E 001°06'2412.8
2017-Feb-13 13:33N 40°19' E 000°60'1312.7
2017-Feb-13 12:33N 40°06' E 000°57'14312.9
2017-Feb-13 01:32N 37°54' W 000°13'1313.1
2017-Feb-13 00:33N 37°44' W 000°22'1212.6
2017-Feb-12 23:34N 37°33' W 000°31'1312.7
2017-Feb-12 22:33N 37°25' W 000°43'22513.0
2017-Feb-12 05:11N 36°01' W 005°04'914.8
2017-Feb-12 04:33N 35°59' W 005°15'1515.0
2017-Feb-12 03:33N 35°56' W 005°33'25710.6
2017-Feb-11 03:22N 38°15' W 010°05'1112.7
2017-Feb-11 02:32N 38°26' W 010°08'1312.7
2017-Feb-11 01:32N 38°38' W 010°11'1312.9
2017-Feb-11 00:31N 38°51' W 010°12'  

Dump ship's entire track history